Time;durP1;ratioP1;P1;durP2;ratioP2;P2;SDS_P1;SDS_P2;PMS_P1;PMS_P2;Temp;Humidity;BMP_temperature;BMP_pressure;BME280_temperature;BME280_humidity;BME280_pressure;Samples;Min_cycle;Max_cycle;Signal;HPM_P1;HPM_P2
2023/11/28 00:00:38;;;;;;;27.50;26.02;;;;;;;;;;5021779;28;20147;-49
2023/11/28 00:03:03;;;;;;;27.27;25.83;;;;;;;;;;5025350;28;20509;-56
2023/11/28 00:05:29;;;;;;;26.52;25.08;;;;;;;;;;5028086;28;20463;-55
2023/11/28 00:07:54;;;;;;;28.90;27.38;;;;;;;;;;5028047;28;20495;-55
2023/11/28 00:10:19;;;;;;;29.92;28.38;;;;;;;;;;5023430;28;20108;-49
2023/11/28 00:12:45;;;;;;;28.63;27.05;;;;;;;;;;5018282;28;20056;-57
2023/11/28 00:15:10;;;;;;;30.00;28.38;;;;;;;;;;5027611;28;20037;-53
2023/11/28 00:17:35;;;;;;;30.10;28.42;;;;;;;;;;5019483;28;20529;-51
2023/11/28 00:20:01;;;;;;;30.50;28.70;;;;;;;;;;5022274;28;20045;-49
2023/11/28 00:22:26;;;;;;;28.83;27.33;;;;;;;;;;5022039;28;20493;-47
2023/11/28 00:24:51;;;;;;;31.08;29.35;;;;;;;;;;5018651;28;20029;-55
2023/11/28 00:27:17;;;;;;;32.05;30.38;;;;;;;;;;5022252;28;20057;-46
2023/11/28 00:29:43;;;;;;;32.67;30.98;;;;;;;;;;5025406;28;20423;-52
2023/11/28 00:32:08;;;;;;;32.30;30.63;;;;;;;;;;5022023;28;20025;-49
2023/11/28 00:34:34;;;;;;;33.00;31.20;;;;;;;;;;5022092;28;20433;-54
2023/11/28 00:36:59;;;;;;;33.75;31.98;;;;;;;;;;5023066;28;20104;-46
2023/11/28 00:39:24;;;;;;;36.22;34.35;;;;;;;;;;5021301;28;20033;-54
2023/11/28 00:41:50;;;;;;;35.60;33.75;;;;;;;;;;5026596;28;20037;-57
2023/11/28 00:44:15;;;;;;;35.88;33.97;;;;;;;;;;5024568;28;20367;-53
2023/11/28 00:46:42;;;;;;;35.78;33.92;;;;;;;;;;5027034;28;20029;-46
2023/11/28 00:49:13;;;;;;;36.80;34.90;;;;;;;;;;5030079;28;20108;-54
2023/11/28 00:51:43;;;;;;;36.03;34.13;;;;;;;;;;5031276;28;20701;-47
2023/11/28 00:54:08;;;;;;;38.13;36.13;;;;;;;;;;5028776;28;21193;-48
2023/11/28 00:56:34;;;;;;;35.00;33.20;;;;;;;;;;5027209;28;20072;-48
2023/11/28 00:58:59;;;;;;;35.20;33.40;;;;;;;;;;5026453;28;20430;-48
2023/11/28 01:01:25;;;;;;;35.95;34.05;;;;;;;;;;5030175;28;20060;-48
2023/11/28 01:03:50;;;;;;;35.65;33.55;;;;;;;;;;5028999;28;20025;-47
2023/11/28 01:06:15;;;;;;;35.13;33.22;;;;;;;;;;5028937;28;20030;-55
2023/11/28 01:08:41;;;;;;;38.05;36.03;;;;;;;;;;5026055;28;20049;-57
2023/11/28 01:11:07;;;;;;;37.30;35.30;;;;;;;;;;5027731;28;20037;-55
2023/11/28 01:13:32;;;;;;;36.88;34.97;;;;;;;;;;5026281;28;20578;-50
2023/11/28 01:15:57;;;;;;;36.92;35.03;;;;;;;;;;5026670;28;20034;-57
2023/11/28 01:18:23;;;;;;;36.33;34.42;;;;;;;;;;5025687;28;20037;-55
2023/11/28 01:20:48;;;;;;;36.35;34.45;;;;;;;;;;5028304;28;20074;-56
2023/11/28 01:23:13;;;;;;;37.15;35.25;;;;;;;;;;5024887;28;20121;-56
2023/11/28 01:25:39;;;;;;;38.85;35.97;;;;;;;;;;5028457;28;20052;-55
2023/11/28 01:28:04;;;;;;;36.08;34.05;;;;;;;;;;5030903;28;20034;-56
2023/11/28 01:30:30;;;;;;;36.08;34.17;;;;;;;;;;5028778;28;20044;-57
2023/11/28 01:32:55;;;;;;;34.90;33.10;;;;;;;;;;5028595;28;20095;-49
2023/11/28 01:35:20;;;;;;;34.60;32.80;;;;;;;;;;5026501;28;20034;-49
2023/11/28 01:37:47;;;;;;;36.22;34.33;;;;;;;;;;5027763;28;20560;-48
2023/11/28 01:40:12;;;;;;;34.05;32.25;;;;;;;;;;5028851;28;20032;-49
2023/11/28 01:42:38;;;;;;;35.05;33.15;;;;;;;;;;5027689;28;20499;-50
2023/11/28 01:45:05;;;;;;;34.50;32.70;;;;;;;;;;5029447;28;20041;-50
2023/11/28 01:47:32;;;;;;;35.85;33.95;;;;;;;;;;5024757;28;20459;-50
2023/11/28 01:49:58;;;;;;;35.30;33.45;;;;;;;;;;5026174;28;20146;-48
2023/11/28 01:52:23;;;;;;;35.10;33.30;;;;;;;;;;5026547;28;20026;-49
2023/11/28 01:54:49;;;;;;;33.70;31.90;;;;;;;;;;5025873;28;20445;-49
2023/11/28 01:57:14;;;;;;;34.38;32.58;;;;;;;;;;5026712;28;20041;-57
2023/11/28 01:59:42;;;;;;;34.70;32.90;;;;;;;;;;5027919;28;20367;-58
2023/11/28 02:02:08;;;;;;;32.95;31.25;;;;;;;;;;5023700;28;20076;-47
2023/11/28 02:04:34;;;;;;;34.85;33.05;;;;;;;;;;5027883;28;20033;-52
2023/11/28 02:07:00;;;;;;;34.08;32.28;;;;;;;;;;5027547;28;20142;-58
2023/11/28 02:09:26;;;;;;;35.05;33.17;;;;;;;;;;5024670;28;20057;-58
2023/11/28 02:11:52;;;;;;;37.10;34.90;;;;;;;;;;5029673;28;20060;-48
2023/11/28 02:14:17;;;;;;;34.17;32.38;;;;;;;;;;5027072;28;20137;-47
2023/11/28 02:16:43;;;;;;;35.55;33.72;;;;;;;;;;5027424;28;20096;-51
2023/11/28 02:19:08;;;;;;;33.55;31.75;;;;;;;;;;5026670;28;20029;-57
2023/11/28 02:21:34;;;;;;;36.17;34.28;;;;;;;;;;5029298;28;20063;-57
2023/11/28 02:24:00;;;;;;;33.38;31.67;;;;;;;;;;5026829;28;20044;-57
2023/11/28 02:26:27;;;;;;;33.75;32.03;;;;;;;;;;5025803;28;20029;-57
2023/11/28 02:28:54;;;;;;;34.40;32.60;;;;;;;;;;5025190;28;20280;-56
2023/11/28 02:31:20;;;;;;;34.03;32.22;;;;;;;;;;5025793;28;20131;-57
2023/11/28 02:33:46;;;;;;;34.10;32.30;;;;;;;;;;5024384;28;20116;-57
2023/11/28 02:36:12;;;;;;;33.85;32.08;;;;;;;;;;5028132;28;20033;-56
2023/11/28 02:38:37;;;;;;;33.60;31.85;;;;;;;;;;5026405;28;20051;-56
2023/11/28 02:41:03;;;;;;;32.80;31.10;;;;;;;;;;5026655;28;20033;-55
2023/11/28 02:43:29;;;;;;;33.40;31.67;;;;;;;;;;5023016;28;20058;-57
2023/11/28 02:45:54;;;;;;;32.65;30.95;;;;;;;;;;5027153;28;20044;-57
2023/11/28 02:48:20;;;;;;;34.17;32.38;;;;;;;;;;5024308;28;20064;-57
2023/11/28 02:50:45;;;;;;;33.65;31.90;;;;;;;;;;5025000;28;20431;-57
2023/11/28 02:53:11;;;;;;;33.47;31.65;;;;;;;;;;5026841;28;20059;-57
2023/11/28 02:55:36;;;;;;;33.20;31.40;;;;;;;;;;5022125;28;20119;-57
2023/11/28 02:58:02;;;;;;;32.03;30.33;;;;;;;;;;5023749;28;20030;-50
2023/11/28 03:00:27;;;;;;;33.92;31.70;;;;;;;;;;5022194;28;20037;-50
2023/11/28 03:02:53;;;;;;;32.13;30.40;;;;;;;;;;5028914;28;20125;-49
2023/11/28 03:05:18;;;;;;;35.13;33.25;;;;;;;;;;5023089;28;20037;-49
2023/11/28 03:07:43;;;;;;;31.63;29.92;;;;;;;;;;5024675;28;20060;-50
2023/11/28 03:10:09;;;;;;;31.10;29.45;;;;;;;;;;5021620;28;20044;-50
2023/11/28 03:12:35;;;;;;;34.35;32.55;;;;;;;;;;5024624;28;20056;-52
2023/11/28 03:15:01;;;;;;;35.00;33.05;;;;;;;;;;5027507;28;20473;-47
2023/11/28 03:17:27;;;;;;;36.97;34.95;;;;;;;;;;5027613;28;20041;-50
2023/11/28 03:19:52;;;;;;;36.20;34.20;;;;;;;;;;5024952;28;20063;-57
2023/11/28 03:22:17;;;;;;;37.80;35.80;;;;;;;;;;5024307;28;20091;-57
2023/11/28 03:24:43;;;;;;;37.33;35.33;;;;;;;;;;5027814;28;20073;-57
2023/11/28 03:27:09;;;;;;;37.05;34.88;;;;;;;;;;5025227;28;20029;-57
2023/11/28 03:29:36;;;;;;;38.05;36.00;;;;;;;;;;5024195;28;20037;-52
2023/11/28 03:32:01;;;;;;;38.30;36.25;;;;;;;;;;5023702;28;20072;-47
2023/11/28 03:34:27;;;;;;;36.53;34.63;;;;;;;;;;5022553;28;20640;-52
2023/11/28 03:36:52;;;;;;;36.67;34.72;;;;;;;;;;5024952;28;20048;-50
2023/11/28 03:39:18;;;;;;;37.28;35.28;;;;;;;;;;5024660;28;20128;-48
2023/11/28 03:41:47;;;;;;;40.28;38.08;;;;;;;;;;5024968;28;20116;-50
2023/11/28 03:44:13;;;;;;;38.60;36.53;;;;;;;;;;5023622;28;20037;-52
2023/11/28 03:46:38;;;;;;;37.97;36.00;;;;;;;;;;5021860;28;20107;-55
2023/11/28 03:49:04;;;;;;;36.65;34.75;;;;;;;;;;5025345;28;20029;-52
2023/11/28 03:51:29;;;;;;;39.65;37.47;;;;;;;;;;5022932;28;20041;-51
2023/11/28 03:53:55;;;;;;;39.03;36.97;;;;;;;;;;5026426;28;20034;-46
2023/11/28 03:56:20;;;;;;;38.00;36.05;;;;;;;;;;5022689;28;20040;-49
2023/11/28 03:58:45;;;;;;;34.20;32.42;;;;;;;;;;5023916;28;20038;-48
2023/11/28 04:01:11;;;;;;;31.70;29.80;;;;;;;;;;5024460;28;20458;-48
2023/11/28 04:03:36;;;;;;;30.98;29.35;;;;;;;;;;5027776;28;20429;-56
2023/11/28 04:06:02;;;;;;;30.58;28.98;;;;;;;;;;5028815;28;20603;-55
2023/11/28 04:08:27;;;;;;;32.25;30.52;;;;;;;;;;5025318;28;20663;-56
2023/11/28 04:10:53;;;;;;;30.95;29.30;;;;;;;;;;5026781;28;20064;-56
2023/11/28 04:13:18;;;;;;;29.05;27.55;;;;;;;;;;5032876;28;20514;-55
2023/11/28 04:15:44;;;;;;;29.58;28.00;;;;;;;;;;5028451;28;20061;-55
2023/11/28 04:18:12;;;;;;;29.67;27.98;;;;;;;;;;5027504;28;20034;-56
2023/11/28 04:20:38;;;;;;;29.67;28.08;;;;;;;;;;5027144;28;20033;-56
2023/11/28 04:23:05;;;;;;;29.30;27.77;;;;;;;;;;5029238;28;20045;-56
2023/11/28 04:25:31;;;;;;;29.00;27.50;;;;;;;;;;5029844;28;20029;-56
2023/11/28 04:27:56;;;;;;;29.02;27.42;;;;;;;;;;5028790;28;20052;-53
2023/11/28 04:30:21;;;;;;;29.02;27.48;;;;;;;;;;5026624;28;20050;-48
2023/11/28 04:32:46;;;;;;;28.52;27.02;;;;;;;;;;5029853;28;20037;-54
2023/11/28 04:35:12;;;;;;;27.70;26.20;;;;;;;;;;5027167;28;20030;-57
2023/11/28 04:37:37;;;;;;;27.52;26.08;;;;;;;;;;5025973;28;20037;-50
2023/11/28 04:40:06;;;;;;;29.00;27.48;;;;;;;;;;5028056;28;20048;-51
2023/11/28 04:42:32;;;;;;;30.13;28.52;;;;;;;;;;5027339;28;20044;-57
2023/11/28 04:44:58;;;;;;;28.00;26.50;;;;;;;;;;5028787;28;20034;-57
2023/11/28 04:47:23;;;;;;;27.88;26.38;;;;;;;;;;5030387;28;20060;-57
2023/11/28 04:49:49;;;;;;;28.35;26.85;;;;;;;;;;5026081;28;20037;-57
2023/11/28 04:52:14;;;;;;;28.35;26.85;;;;;;;;;;5029494;28;20033;-57
2023/11/28 04:54:39;;;;;;;27.42;26.02;;;;;;;;;;5027954;28;20059;-57
2023/11/28 04:57:05;;;;;;;27.40;26.00;;;;;;;;;;5026798;28;20372;-57
2023/11/28 04:59:31;;;;;;;28.13;26.63;;;;;;;;;;5025781;28;20080;-58
2023/11/28 05:01:57;;;;;;;29.23;27.73;;;;;;;;;;5026817;28;20033;-59
2023/11/28 05:04:22;;;;;;;28.60;27.10;;;;;;;;;;5026356;28;20029;-57
2023/11/28 05:06:47;;;;;;;27.27;25.88;;;;;;;;;;5024578;28;20038;-50
2023/11/28 05:09:17;;;;;;;27.38;25.98;;;;;;;;;;5025625;28;20087;-53
2023/11/28 05:11:43;;;;;;;28.13;26.63;;;;;;;;;;5028166;28;20036;-52
2023/11/28 05:14:08;;;;;;;27.92;26.42;;;;;;;;;;5028626;28;20037;-48
2023/11/28 05:16:34;;;;;;;27.00;25.60;;;;;;;;;;5029637;28;20474;-54
2023/11/28 05:18:59;;;;;;;28.55;27.05;;;;;;;;;;5028671;28;20044;-51
2023/11/28 05:21:25;;;;;;;27.98;26.48;;;;;;;;;;5026849;28;20029;-50
2023/11/28 05:23:50;;;;;;;27.88;26.42;;;;;;;;;;5029538;28;20030;-54
2023/11/28 05:26:16;;;;;;;27.02;25.63;;;;;;;;;;5030769;28;20045;-51
2023/11/28 05:28:41;;;;;;;27.85;26.35;;;;;;;;;;5028350;28;20120;-51
2023/11/28 05:31:06;;;;;;;27.90;26.42;;;;;;;;;;5030458;28;20033;-50
2023/11/28 05:33:32;;;;;;;28.23;26.73;;;;;;;;;;5030797;28;20068;-58
2023/11/28 05:35:57;;;;;;;27.15;25.75;;;;;;;;;;5021778;28;20136;-57
2023/11/28 05:38:23;;;;;;;27.60;26.20;;;;;;;;;;5026950;28;20051;-57
2023/11/28 05:40:48;;;;;;;28.50;27.00;;;;;;;;;;5026939;28;20086;-58
2023/11/28 05:43:13;;;;;;;28.90;27.40;;;;;;;;;;5028718;28;20482;-58
2023/11/28 05:45:39;;;;;;;28.77;27.27;;;;;;;;;;5023971;28;20061;-48
2023/11/28 05:48:05;;;;;;;27.98;26.48;;;;;;;;;;5030638;28;20532;-53
2023/11/28 05:50:31;;;;;;;28.58;27.08;;;;;;;;;;5030289;28;20030;-52
2023/11/28 05:52:56;;;;;;;27.85;26.35;;;;;;;;;;5025025;28;20059;-58
2023/11/28 05:55:22;;;;;;;28.67;27.17;;;;;;;;;;5034142;28;20124;-58
2023/11/28 05:57:51;;;;;;;28.55;27.05;;;;;;;;;;5024732;28;20139;-57
2023/11/28 06:00:17;;;;;;;28.17;26.67;;;;;;;;;;5028861;28;20034;-57
2023/11/28 06:02:43;;;;;;;28.33;26.83;;;;;;;;;;5028798;28;20041;-50
2023/11/28 06:05:08;;;;;;;28.60;27.10;;;;;;;;;;5028504;28;20049;-52
2023/11/28 06:07:34;;;;;;;29.13;27.52;;;;;;;;;;5025353;28;20549;-58
2023/11/28 06:10:00;;;;;;;27.98;26.48;;;;;;;;;;5026683;28;20047;-58
2023/11/28 06:12:25;;;;;;;28.77;27.27;;;;;;;;;;5025528;28;20034;-58
2023/11/28 06:14:54;;;;;;;28.60;27.10;;;;;;;;;;5026000;28;20037;-58
2023/11/28 06:17:19;;;;;;;28.48;26.98;;;;;;;;;;5025708;28;20406;-59
2023/11/28 06:19:44;;;;;;;28.38;26.88;;;;;;;;;;5026961;28;20041;-58
2023/11/28 06:22:10;;;;;;;28.85;27.35;;;;;;;;;;5028290;28;20559;-58
2023/11/28 06:24:37;;;;;;;28.50;27.00;;;;;;;;;;5023471;28;20103;-58
2023/11/28 06:27:04;;;;;;;28.15;26.65;;;;;;;;;;5025553;28;20041;-58
2023/11/28 06:29:29;;;;;;;28.48;26.98;;;;;;;;;;5022314;28;20034;-58
2023/11/28 06:31:56;;;;;;;27.92;26.45;;;;;;;;;;5025773;28;20104;-58
2023/11/28 06:34:22;;;;;;;28.25;26.75;;;;;;;;;;5025660;28;20112;-58
2023/11/28 06:36:47;;;;;;;28.42;26.92;;;;;;;;;;5025676;28;20175;-59
2023/11/28 06:39:13;;;;;;;29.00;27.50;;;;;;;;;;5024015;28;20037;-58
2023/11/28 06:41:39;;;;;;;28.55;27.05;;;;;;;;;;5009734;28;20119;-57
2023/11/28 06:44:04;;;;;;;28.98;27.38;;;;;;;;;;5022355;28;20037;-59
2023/11/28 06:46:31;;;;;;;26.77;25.38;;;;;;;;;;5027424;28;20489;-58
2023/11/28 06:48:56;;;;;;;27.65;26.20;;;;;;;;;;5026192;28;20188;-58
2023/11/28 06:51:23;;;;;;;26.50;25.10;;;;;;;;;;5028212;28;20135;-58
2023/11/28 06:53:49;;;;;;;27.55;26.13;;;;;;;;;;5023248;28;20041;-58
2023/11/28 06:56:15;;;;;;;25.80;24.40;;;;;;;;;;5026533;28;20116;-58
2023/11/28 06:58:42;;;;;;;26.85;25.45;;;;;;;;;;5021859;28;20029;-58
2023/11/28 07:01:08;;;;;;;27.92;26.42;;;;;;;;;;5026454;28;20029;-58
2023/11/28 07:03:34;;;;;;;27.20;25.80;;;;;;;;;;5023093;28;20040;-58
2023/11/28 07:06:00;;;;;;;26.77;25.38;;;;;;;;;;5027088;28;20140;-58
2023/11/28 07:08:25;;;;;;;26.52;25.13;;;;;;;;;;5025249;28;20136;-59
2023/11/28 07:10:51;;;;;;;25.77;24.40;;;;;;;;;;5022353;28;20068;-59
2023/11/28 07:13:16;;;;;;;26.58;25.17;;;;;;;;;;5023921;28;20041;-59
2023/11/28 07:15:42;;;;;;;26.48;25.08;;;;;;;;;;5022797;28;20034;-58
2023/11/28 07:18:08;;;;;;;25.70;24.20;;;;;;;;;;5027291;28;20041;-59
2023/11/28 07:20:34;;;;;;;26.33;24.92;;;;;;;;;;5026231;28;20055;-59
2023/11/28 07:22:59;;;;;;;26.85;25.45;;;;;;;;;;5021120;28;20033;-58
2023/11/28 07:25:24;;;;;;;26.85;25.45;;;;;;;;;;5025469;28;20382;-59
2023/11/28 07:27:50;;;;;;;27.02;25.63;;;;;;;;;;5025153;28;20030;-58
2023/11/28 07:30:16;;;;;;;27.23;25.83;;;;;;;;;;5024554;28;20047;-58
2023/11/28 07:32:41;;;;;;;27.65;26.20;;;;;;;;;;5021578;28;20033;-58
2023/11/28 07:35:08;;;;;;;27.40;26.00;;;;;;;;;;5024339;28;20029;-58
2023/11/28 07:37:33;;;;;;;26.15;24.75;;;;;;;;;;5025154;28;20480;-59
2023/11/28 07:39:59;;;;;;;28.17;26.67;;;;;;;;;;5024949;28;20045;-59
2023/11/28 07:42:24;;;;;;;27.80;26.30;;;;;;;;;;5025562;28;20447;-60
2023/11/28 07:44:49;;;;;;;28.75;27.25;;;;;;;;;;5026671;28;20110;-60
2023/11/28 07:47:15;;;;;;;27.30;25.90;;;;;;;;;;5021588;28;20479;-59
2023/11/28 07:49:40;;;;;;;28.33;26.83;;;;;;;;;;5023999;28;20030;-59
2023/11/28 07:52:06;;;;;;;27.45;26.05;;;;;;;;;;5022609;28;20382;-58
2023/11/28 07:54:31;;;;;;;28.08;26.63;;;;;;;;;;5022736;28;20100;-59
2023/11/28 07:56:57;;;;;;;27.40;26.00;;;;;;;;;;5030258;28;20044;-59
2023/11/28 07:59:22;;;;;;;28.23;26.73;;;;;;;;;;5030442;28;20038;-58
2023/11/28 08:01:47;;;;;;;28.48;26.98;;;;;;;;;;5029633;28;20044;-55
2023/11/28 08:04:13;;;;;;;26.88;25.45;;;;;;;;;;5025058;28;20045;-58
2023/11/28 08:06:40;;;;;;;24.80;23.50;;;;;;;;;;5030712;28;20030;-58
2023/11/28 08:09:07;;;;;;;26.63;25.23;;;;;;;;;;5028961;28;20108;-59
2023/11/28 08:11:33;;;;;;;25.73;24.33;;;;;;;;;;5016504;28;20685;-59
2023/11/28 08:13:58;;;;;;;25.77;24.38;;;;;;;;;;5023126;28;20093;-59
2023/11/28 08:16:24;;;;;;;25.80;24.40;;;;;;;;;;5028385;28;20029;-58
2023/11/28 08:18:49;;;;;;;26.05;24.65;;;;;;;;;;5026077;28;20121;-59
2023/11/28 08:21:15;;;;;;;24.38;23.08;;;;;;;;;;5026815;28;20482;-58
2023/11/28 08:23:41;;;;;;;24.58;23.27;;;;;;;;;;5029019;28;20052;-58
2023/11/28 08:26:07;;;;;;;27.27;25.88;;;;;;;;;;5029500;28;20037;-58
2023/11/28 08:28:32;;;;;;;26.83;25.42;;;;;;;;;;5029665;28;20463;-58
2023/11/28 08:30:58;;;;;;;24.65;23.35;;;;;;;;;;5027582;28;20034;-58
2023/11/28 08:33:23;;;;;;;24.63;23.33;;;;;;;;;;5025334;28;20099;-58
2023/11/28 08:35:49;;;;;;;26.75;25.35;;;;;;;;;;5027777;28;20055;-58
2023/11/28 08:38:14;;;;;;;25.70;24.33;;;;;;;;;;5027912;28;20030;-58
2023/11/28 08:40:39;;;;;;;25.25;23.95;;;;;;;;;;5027892;28;20045;-59
2023/11/28 08:43:05;;;;;;;24.50;23.20;;;;;;;;;;5028168;28;20095;-53
2023/11/28 08:45:30;;;;;;;24.27;22.98;;;;;;;;;;5028691;28;20049;-53
2023/11/28 08:47:55;;;;;;;24.45;23.15;;;;;;;;;;5026404;28;20034;-51
2023/11/28 08:50:21;;;;;;;24.08;22.77;;;;;;;;;;5026504;28;20041;-50
2023/11/28 08:52:46;;;;;;;25.67;24.27;;;;;;;;;;5028307;28;20034;-52
2023/11/28 08:55:11;;;;;;;25.15;23.85;;;;;;;;;;5024194;28;20107;-58
2023/11/28 08:57:37;;;;;;;24.40;23.10;;;;;;;;;;5027308;28;20490;-59
2023/11/28 09:00:06;;;;;;;25.13;23.83;;;;;;;;;;5024061;28;20030;-59
2023/11/28 09:02:32;;;;;;;25.13;23.73;;;;;;;;;;5027500;28;20049;-60
2023/11/28 09:04:57;;;;;;;25.88;24.50;;;;;;;;;;5026904;28;20031;-59
2023/11/28 09:07:23;;;;;;;26.15;24.75;;;;;;;;;;5023099;28;20037;-59
2023/11/28 09:09:48;;;;;;;26.85;25.45;;;;;;;;;;5024299;28;20044;-59
2023/11/28 09:12:15;;;;;;;23.67;22.42;;;;;;;;;;5026606;28;20029;-59
2023/11/28 09:14:41;;;;;;;24.63;23.23;;;;;;;;;;5021877;28;20092;-57
2023/11/28 09:17:06;;;;;;;26.30;24.90;;;;;;;;;;5026257;28;20041;-60
2023/11/28 09:19:32;;;;;;;26.25;24.85;;;;;;;;;;5028955;28;20101;-59
2023/11/28 09:21:57;;;;;;;24.20;22.90;;;;;;;;;;5024498;28;20403;-59
2023/11/28 09:24:23;;;;;;;24.30;23.00;;;;;;;;;;5026180;28;20079;-59
2023/11/28 09:26:48;;;;;;;24.73;23.42;;;;;;;;;;5027945;28;20037;-59
2023/11/28 09:29:16;;;;;;;24.73;23.42;;;;;;;;;;5023322;28;20603;-59
2023/11/28 09:31:42;;;;;;;25.15;23.77;;;;;;;;;;5025850;28;20116;-59
2023/11/28 09:34:07;;;;;;;24.02;22.73;;;;;;;;;;5023730;28;20550;-59
2023/11/28 09:36:33;;;;;;;25.52;24.15;;;;;;;;;;5026719;28;20040;-59
2023/11/28 09:39:03;;;;;;;26.17;24.77;;;;;;;;;;5023512;28;20037;-59
2023/11/28 09:41:32;;;;;;;26.83;25.43;;;;;;;;;;5021930;28;20041;-59
2023/11/28 09:43:58;;;;;;;25.63;24.27;;;;;;;;;;5027703;28;20610;-59
2023/11/28 09:46:25;;;;;;;26.05;24.63;;;;;;;;;;5026336;28;20371;-60
2023/11/28 09:48:53;;;;;;;26.35;24.95;;;;;;;;;;5027588;28;20029;-60
2023/11/28 09:51:20;;;;;;;25.02;23.70;;;;;;;;;;5026641;28;20041;-60
2023/11/28 09:53:46;;;;;;;24.52;23.20;;;;;;;;;;5029086;28;20060;-59
2023/11/28 09:56:14;;;;;;;24.80;23.40;;;;;;;;;;5025163;28;20047;-59
2023/11/28 09:58:39;;;;;;;24.90;23.58;;;;;;;;;;5026317;28;20048;-62
2023/11/28 10:01:08;;;;;;;25.33;24.02;;;;;;;;;;5026068;28;20029;-59
2023/11/28 10:03:34;;;;;;;24.65;23.35;;;;;;;;;;5025260;28;20647;-60
2023/11/28 10:05:59;;;;;;;24.55;23.25;;;;;;;;;;5024510;28;20056;-59
2023/11/28 10:08:29;;;;;;;24.55;23.25;;;;;;;;;;5026821;28;20101;-60
2023/11/28 10:10:56;;;;;;;25.42;24.08;;;;;;;;;;5026566;28;20103;-60
2023/11/28 10:13:22;;;;;;;26.92;25.50;;;;;;;;;;5022096;28;20037;-60
2023/11/28 10:15:54;;;;;;;26.95;25.52;;;;;;;;;;5025521;28;20037;-60
2023/11/28 10:18:22;;;;;;;30.17;28.58;;;;;;;;;;5024560;28;20026;-60
2023/11/28 10:20:47;;;;;;;30.13;28.58;;;;;;;;;;5025439;28;20044;-59
2023/11/28 10:23:19;;;;;;;30.42;28.83;;;;;;;;;;5024104;28;20033;-60
2023/11/28 10:25:44;;;;;;;;;;;;;;;;;;5029164;28;20022;-60
2023/11/28 10:28:13;;;;;;;26.27;24.90;;;;;;;;;;5028304;28;19943;-60
2023/11/28 10:30:40;;;;;;;30.25;28.67;;;;;;;;;;5025994;28;20086;-59
2023/11/28 10:33:09;;;;;;;27.38;25.92;;;;;;;;;;5024327;28;20038;-59
2023/11/28 10:35:42;;;;;;;31.10;29.45;;;;;;;;;;5028351;28;20071;-60
2023/11/28 10:38:14;;;;;;;28.10;26.63;;;;;;;;;;5022690;28;20033;-59
2023/11/28 10:40:47;;;;;;;29.60;28.05;;;;;;;;;;5025879;28;20041;-59
2023/11/28 10:43:13;;;;;;;30.65;29.08;;;;;;;;;;5021952;28;20044;-59
2023/11/28 10:45:41;;;;;;;32.50;30.83;;;;;;;;;;5025430;28;20044;-60
2023/11/28 10:48:07;;;;;;;32.13;30.45;;;;;;;;;;5023743;28;20021;-60
2023/11/28 10:50:32;;;;;;;33.40;31.70;;;;;;;;;;5025833;28;20079;-60
2023/11/28 10:53:02;;;;;;;35.63;33.80;;;;;;;;;;5024968;28;20139;-60
2023/11/28 10:55:28;;;;;;;33.55;31.50;;;;;;;;;;5024773;28;20044;-59
2023/11/28 10:58:04;;;;;;;34.10;32.30;;;;;;;;;;5024965;28;20217;-60
2023/11/28 11:00:40;;;;;;;32.28;30.60;;;;;;;;;;5027440;28;20040;-60
2023/11/28 11:03:08;;;;;;;31.23;29.60;;;;;;;;;;5022869;28;20040;-60
2023/11/28 11:05:34;;;;;;;31.58;29.95;;;;;;;;;;5023769;28;20057;-60
2023/11/28 11:08:02;;;;;;;32.83;31.08;;;;;;;;;;5025989;28;20391;-60
2023/11/28 11:10:30;;;;;;;32.05;30.38;;;;;;;;;;5024719;28;20120;-60
2023/11/28 11:13:14;;;;;;;31.60;29.95;;;;;;;;;;5025198;28;20056;-49
2023/11/28 11:16:06;;;;;;;32.05;30.35;;;;;;;;;;5025942;28;20063;-52
2023/11/28 11:18:37;;;;;;;33.47;31.73;;;;;;;;;;5022206;28;20661;-51
2023/11/28 11:21:36;;;;;;;30.90;29.30;;;;;;;;;;5021553;28;20041;-52
2023/11/28 11:24:02;;;;;;;33.55;31.83;;;;;;;;;;5023253;28;20049;-52
2023/11/28 11:26:38;;;;;;;29.77;28.23;;;;;;;;;;5021969;28;20033;-50
2023/11/28 11:29:23;;;;;;;30.70;29.08;;;;;;;;;;5026471;28;20025;-53
2023/11/28 11:31:55;;;;;;;30.40;28.80;;;;;;;;;;5022179;28;20422;-53
2023/11/28 11:34:37;;;;;;;30.80;29.20;;;;;;;;;;5024181;28;20052;-51
2023/11/28 11:37:06;;;;;;;31.65;30.00;;;;;;;;;;5020231;28;20036;-53
2023/11/28 11:39:31;;;;;;;33.90;32.05;;;;;;;;;;5023053;28;20406;-51
2023/11/28 11:41:57;;;;;;;32.92;31.20;;;;;;;;;;5023791;28;20037;-50
2023/11/28 11:44:22;;;;;;;32.50;30.80;;;;;;;;;;5023659;28;20025;-50
2023/11/28 11:46:48;;;;;;;32.78;30.98;;;;;;;;;;5022361;28;20034;-49
2023/11/28 11:49:15;;;;;;;35.22;33.38;;;;;;;;;;5023753;28;20037;-50
2023/11/28 11:51:40;;;;;;;32.67;30.98;;;;;;;;;;5023716;28;20108;-52
2023/11/28 11:54:06;;;;;;;32.45;30.73;;;;;;;;;;5023318;28;20470;-52
2023/11/28 11:56:31;;;;;;;32.08;30.38;;;;;;;;;;5022431;28;20092;-53
2023/11/28 11:59:02;;;;;;;32.78;31.08;;;;;;;;;;5023101;28;20034;-52
2023/11/28 12:01:30;;;;;;;30.92;29.33;;;;;;;;;;5023850;28;20048;-52
2023/11/28 12:04:00;;;;;;;31.77;29.98;;;;;;;;;;5021660;28;20038;-51
2023/11/28 12:06:25;;;;;;;28.90;27.35;;;;;;;;;;5021969;28;20038;-52
2023/11/28 12:08:50;;;;;;;28.30;26.83;;;;;;;;;;5021901;28;20088;-51
2023/11/28 12:11:16;;;;;;;26.67;25.27;;;;;;;;;;5022930;28;20032;-52
2023/11/28 12:13:42;;;;;;;25.63;24.27;;;;;;;;;;5022954;28;20522;-53
2023/11/28 12:16:10;;;;;;;25.83;24.42;;;;;;;;;;5024736;28;20102;-50
2023/11/28 12:18:37;;;;;;;26.35;24.85;;;;;;;;;;5022535;28;20049;-53
2023/11/28 12:21:04;;;;;;;23.88;22.58;;;;;;;;;;5020803;28;20037;-53
2023/11/28 12:23:31;;;;;;;24.00;22.70;;;;;;;;;;5022869;28;20095;-53
2023/11/28 12:25:58;;;;;;;23.63;22.33;;;;;;;;;;5021295;28;20099;-51
2023/11/28 12:28:25;;;;;;;24.17;22.85;;;;;;;;;;5021434;28;20037;-50
2023/11/28 12:30:52;;;;;;;22.52;21.33;;;;;;;;;;5026527;28;20036;-52
2023/11/28 12:33:17;;;;;;;23.88;22.58;;;;;;;;;;5022673;28;20045;-51
2023/11/28 12:35:49;;;;;;;23.42;22.13;;;;;;;;;;5026789;28;20033;-53
2023/11/28 12:38:16;;;;;;;24.05;22.58;;;;;;;;;;5025594;28;20049;-52
2023/11/28 12:40:44;;;;;;;25.17;23.88;;;;;;;;;;5025826;28;20124;-52
2023/11/28 12:43:19;;;;;;;24.25;22.95;;;;;;;;;;5029066;28;20035;-52
2023/11/28 12:45:45;;;;;;;23.02;21.73;;;;;;;;;;5029035;28;20041;-52
2023/11/28 12:48:10;;;;;;;22.92;21.73;;;;;;;;;;5027850;28;20761;-52
2023/11/28 12:50:36;;;;;;;23.95;22.65;;;;;;;;;;5029754;28;20037;-53
2023/11/28 12:53:14;;;;;;;23.85;22.55;;;;;;;;;;5035731;28;20041;-54
2023/11/28 12:55:40;;;;;;;24.27;22.98;;;;;;;;;;5025880;28;20033;-51
2023/11/28 12:58:05;;;;;;;25.05;23.65;;;;;;;;;;5026724;28;20034;-52
2023/11/28 13:00:30;;;;;;;24.65;23.25;;;;;;;;;;5027068;28;20207;-50
2023/11/28 13:02:56;;;;;;;25.00;23.60;;;;;;;;;;5023896;28;20537;-49
2023/11/28 13:05:23;;;;;;;24.30;23.00;;;;;;;;;;5030843;28;20129;-52
2023/11/28 13:07:48;;;;;;;24.10;22.80;;;;;;;;;;5026712;28;20029;-54
2023/11/28 13:10:14;;;;;;;23.58;22.27;;;;;;;;;;5027114;28;20044;-51
2023/11/28 13:12:39;;;;;;;23.80;22.50;;;;;;;;;;5029709;28;20693;-49
2023/11/28 13:15:05;;;;;;;24.15;22.85;;;;;;;;;;5024411;28;20106;-51
2023/11/28 13:17:31;;;;;;;22.65;21.45;;;;;;;;;;5024085;28;20364;-53
2023/11/28 13:19:56;;;;;;;23.88;22.27;;;;;;;;;;5023544;28;20048;-52
2023/11/28 13:22:22;;;;;;;23.98;22.67;;;;;;;;;;5027935;28;20124;-56
2023/11/28 13:24:50;;;;;;;21.85;20.65;;;;;;;;;;5027297;28;20036;-48
2023/11/28 13:27:16;;;;;;;25.30;23.90;;;;;;;;;;5029475;28;20036;-60
2023/11/28 13:29:43;;;;;;;22.67;21.38;;;;;;;;;;5027509;28;20033;-60
2023/11/28 13:32:08;;;;;;;22.98;21.73;;;;;;;;;;5025269;28;20088;-51
2023/11/28 13:34:35;;;;;;;22.40;21.20;;;;;;;;;;5023656;28;20037;-49
2023/11/28 13:37:02;;;;;;;23.05;21.85;;;;;;;;;;5027834;28;20038;-60
2023/11/28 13:39:27;;;;;;;23.05;21.85;;;;;;;;;;5023780;28;20037;-59
2023/11/28 13:41:52;;;;;;;21.98;20.77;;;;;;;;;;5028285;28;20043;-59
2023/11/28 13:44:18;;;;;;;23.98;22.67;;;;;;;;;;5026339;28;20064;-59
2023/11/28 13:46:44;;;;;;;22.77;21.58;;;;;;;;;;5026654;28;20107;-60
2023/11/28 13:49:09;;;;;;;21.88;20.67;;;;;;;;;;5029225;28;20855;-60
2023/11/28 13:51:36;;;;;;;21.60;20.40;;;;;;;;;;5026194;28;20044;-59
2023/11/28 13:54:01;;;;;;;22.17;20.98;;;;;;;;;;5023866;28;20037;-60
2023/11/28 13:56:26;;;;;;;22.20;21.00;;;;;;;;;;5023360;28;20052;-60
2023/11/28 13:58:52;;;;;;;22.17;20.98;;;;;;;;;;5022772;28;20132;-59
2023/11/28 14:01:17;;;;;;;22.25;21.05;;;;;;;;;;5026293;28;20125;-60
2023/11/28 14:03:42;;;;;;;24.02;21.55;;;;;;;;;;5025912;28;20025;-60
2023/11/28 14:06:08;;;;;;;21.90;20.70;;;;;;;;;;5022452;28;20206;-59
2023/11/28 14:08:34;;;;;;;22.20;20.98;;;;;;;;;;5026102;28;20044;-60
2023/11/28 14:10:59;;;;;;;23.75;22.45;;;;;;;;;;5025965;28;20160;-60
2023/11/28 14:13:25;;;;;;;22.33;21.13;;;;;;;;;;5023995;28;20033;-60